Airfield :







YOU CAN JOIN US ON...

 
LOGIN :

Register | Disclaimer

   EN    FR    IT 

 









Legend :    VFR   Marginal VFR   IFR   Intensive IFR   Very Intensive IFR
Visi :
Ceiling :
>= 8 km
>= 3000ft
5 to 8 km
1000 to 3000 ft
1500m to 5 km
500 to 1000 ft
800 to 1500m
200 to 500 ft
< 800m
< 200 ft
Symbols :   Thunderstorms  Fog  Heavy snow  Heavy precipitations  Wind > 20 kt






- Airport Elevation : 930 ft


KEFK - Newport State

CURRENT METAR :
  • 300055Z AUTO 00000KT 10SM CLR 17/02 A3013 RMK AO2 T01660021

EXPIRED METARs :
  • 300035Z AUTO 00000KT 10SM CLR 16/03 A3012 RMK AO2 T01620029
  • 300015Z AUTO 36004KT 10SM CLR 16/04 A3012 RMK AO2 T01630039
  • 292355Z AUTO 33004KT 10SM CLR 18/04 A3012 RMK AO2 T01800035 10229 20180
  • 292335Z AUTO 33005KT 10SM CLR 19/04 A3012 RMK AO2 T01900038
  • 292315Z AUTO 33005KT 10SM CLR 20/05 A3011 RMK AO2 T02010045
  • 292255Z AUTO 33005KT 10SM CLR 21/04 A3011 RMK AO2 T02100038
  • 292235Z AUTO 35006KT 10SM CLR 22/02 A3012 RMK AO2 T02200024
  • 292215Z AUTO 33007KT 10SM CLR 22/02 A3012 RMK AO2 T02210018

TAF KEFK
Valid from the 30 at 00:00 until the 31 at 00:00 UTC


292320Z 3000/3024 VRB04KT P6SM SKC
FM300600 17007KT P6SM FEW250
KZBW FIR / North America



MET'MAP, your aeronautical weather chart ! - Copyright ORBIFLY December 2007 - Disclaimer

ORBIFLY MET'MAP TEAM :

Programming & Development : Alexandra Zaïnal
Original concept : Baudouin d'Aumeries
Technical & hardware support : Manuel Goepfert
Assistance : Marc-Olivier Méhu




SOURCES & CREDITS :

   NOAA